TEJ106 SCEL-SCTE
Flight info
| Callsign | TEJ106 |
|---|---|
| Flight time | 1h 21m |
| Altitude | 37000 |
| Route | ANGOD6C ANGOD UQ803 ERUKA DCT SARTO SARTO2A |
| Aircraft | A21N/M-SDE2E3FGHIRWXY/LB1 |
Departure
| Time | 2026-04-23 20:39 |
|---|---|
| Airport | Comodoro Arturo Merino Benítez International Airport (SCEL) |
Arrival
| Time | 2026-04-23 22:00 |
|---|---|
| Airport | El Tepual International Airport (SCTE) |
| Time | Latitude | Longitude | Altitude | Speed | Heading |
|---|---|---|---|---|---|
| 2026-04-23 18:00 | -33.39710 | -70.78953 | 1581 ft | 0 kts | 357° |
| 2026-04-23 20:28 | -33.39735 | -70.78952 | 1570 ft | 4 kts | 359° |
| 2026-04-23 20:28 | -33.39762 | -70.78953 | 1570 ft | 4 kts | 7° |
| 2026-04-23 20:29 | -33.39786 | -70.78961 | 1570 ft | 4 kts | 41° |
| 2026-04-23 20:29 | -33.39793 | -70.78982 | 1570 ft | 4 kts | 88° |
| 2026-04-23 20:29 | -33.39794 | -70.79003 | 1570 ft | 0 kts | 88° |
| 2026-04-23 20:31 | -33.39794 | -70.78991 | 1570 ft | 3 kts | 88° |
| 2026-04-23 20:32 | -33.39792 | -70.78954 | 1570 ft | 6 kts | 88° |
| 2026-04-23 20:32 | -33.39783 | -70.78896 | 1570 ft | 9 kts | 55° |
| 2026-04-23 20:32 | -33.39751 | -70.78822 | 1570 ft | 12 kts | 83° |
| 2026-04-23 20:32 | -33.39684 | -70.78775 | 1570 ft | 14 kts | 355° |
| 2026-04-23 20:33 | -33.39579 | -70.78782 | 1570 ft | 16 kts | 357° |
| 2026-04-23 20:33 | -33.39462 | -70.78789 | 1570 ft | 18 kts | 357° |
| 2026-04-23 20:33 | -33.39334 | -70.78796 | 1570 ft | 19 kts | 358° |
| 2026-04-23 20:33 | -33.39192 | -70.78802 | 1570 ft | 21 kts | 358° |
| 2026-04-23 20:34 | -33.39053 | -70.78809 | 1569 ft | 18 kts | 356° |
| 2026-04-23 20:34 | -33.38922 | -70.78818 | 1569 ft | 20 kts | 358° |
| 2026-04-23 20:34 | -33.38876 | -70.78820 | 1569 ft | 6 kts | 358° |
| 2026-04-23 20:34 | -33.38826 | -70.78822 | 1569 ft | 8 kts | 358° |
| 2026-04-23 20:35 | -33.38761 | -70.78824 | 1569 ft | 10 kts | 358° |
| 2026-04-23 20:35 | -33.38681 | -70.78828 | 1569 ft | 13 kts | 358° |
| 2026-04-23 20:35 | -33.38586 | -70.78832 | 1569 ft | 15 kts | 356° |
| 2026-04-23 20:35 | -33.38478 | -70.78839 | 1569 ft | 16 kts | 356° |
| 2026-04-23 20:36 | -33.38358 | -70.78848 | 1570 ft | 18 kts | 357° |
| 2026-04-23 20:36 | -33.38227 | -70.78855 | 1570 ft | 20 kts | 358° |
| 2026-04-23 20:36 | -33.38085 | -70.78862 | 1570 ft | 21 kts | 358° |
| 2026-04-23 20:36 | -33.37931 | -70.78869 | 1570 ft | 23 kts | 358° |
| 2026-04-23 20:37 | -33.37782 | -70.78876 | 1570 ft | 17 kts | 357° |
| 2026-04-23 20:37 | -33.37656 | -70.78883 | 1569 ft | 19 kts | 357° |
| 2026-04-23 20:37 | -33.37548 | -70.78819 | 1569 ft | 20 kts | 81° |
| 2026-04-23 20:37 | -33.37596 | -70.78672 | 1569 ft | 22 kts | 165° |
| 2026-04-23 20:38 | -33.37754 | -70.78654 | 1570 ft | 24 kts | 176° |
| 2026-04-23 20:38 | -33.38101 | -70.78638 | 1570 ft | 84 kts | 179° |
| 2026-04-23 20:38 | -33.38888 | -70.78601 | 1571 ft | 140 kts | 177° |
| 2026-04-23 20:38 | -33.39980 | -70.78537 | 1619 ft | 172 kts | 176° |
| 2026-04-23 20:39 | -33.41156 | -70.78479 | 2226 ft | 171 kts | 177° |
| 2026-04-23 20:39 | -33.42403 | -70.78414 | 2682 ft | 189 kts | 176° |
| 2026-04-23 20:39 | -33.43788 | -70.78314 | 3262 ft | 209 kts | 175° |
| 2026-04-23 20:39 | -33.45332 | -70.78203 | 3762 ft | 236 kts | 176° |
| 2026-04-23 20:40 | -33.47067 | -70.78084 | 4237 ft | 262 kts | 176° |
| 2026-04-23 20:40 | -33.48956 | -70.77962 | 4880 ft | 274 kts | 176° |
| 2026-04-23 20:40 | -33.50855 | -70.77853 | 5946 ft | 274 kts | 177° |
| 2026-04-23 20:40 | -33.52775 | -70.77756 | 6835 ft | 278 kts | 178° |
| 2026-04-23 20:41 | -33.54719 | -70.77952 | 7677 ft | 283 kts | 191° |
| 2026-04-23 20:41 | -33.56634 | -70.78476 | 8521 ft | 288 kts | 194° |
| 2026-04-23 20:41 | -33.58600 | -70.79052 | 9390 ft | 292 kts | 194° |
| 2026-04-23 20:41 | -33.60590 | -70.79655 | 10229 ft | 297 kts | 195° |
| 2026-04-23 20:42 | -33.62661 | -70.80315 | 10691 ft | 318 kts | 196° |
| 2026-04-23 20:42 | -33.64876 | -70.81024 | 11035 ft | 341 kts | 196° |
| 2026-04-23 20:42 | -33.67256 | -70.81772 | 11391 ft | 362 kts | 196° |
| 2026-04-23 20:42 | -33.69725 | -70.82548 | 12082 ft | 370 kts | 196° |
| 2026-04-23 20:43 | -33.72191 | -70.83323 | 12897 ft | 373 kts | 196° |
| 2026-04-23 20:43 | -33.74710 | -70.84114 | 13702 ft | 376 kts | 196° |
| 2026-04-23 20:43 | -33.77262 | -70.84911 | 14498 ft | 380 kts | 196° |
| 2026-04-23 20:43 | -33.79830 | -70.85715 | 15259 ft | 383 kts | 196° |
| 2026-04-23 20:44 | -33.82426 | -70.86522 | 16000 ft | 386 kts | 196° |
| 2026-04-23 20:44 | -33.85036 | -70.87334 | 16688 ft | 389 kts | 197° |
| 2026-04-23 20:44 | -33.87674 | -70.88159 | 17348 ft | 393 kts | 197° |
| 2026-04-23 20:44 | -33.90334 | -70.88986 | 17989 ft | 396 kts | 197° |
| 2026-04-23 20:45 | -33.93014 | -70.89820 | 18633 ft | 399 kts | 197° |
| 2026-04-23 20:45 | -33.95714 | -70.90666 | 19239 ft | 402 kts | 197° |
| 2026-04-23 20:45 | -33.98431 | -70.91518 | 19831 ft | 404 kts | 198° |
| 2026-04-23 20:45 | -34.01165 | -70.92370 | 20424 ft | 408 kts | 197° |
| 2026-04-23 20:46 | -34.03910 | -70.93134 | 21033 ft | 411 kts | 196° |
| 2026-04-23 20:46 | -34.06708 | -70.93895 | 21637 ft | 414 kts | 196° |
| 2026-04-23 20:46 | -34.09533 | -70.94659 | 22215 ft | 416 kts | 196° |
| 2026-04-23 20:46 | -34.12367 | -70.95432 | 22786 ft | 419 kts | 197° |
| 2026-04-23 20:47 | -34.15222 | -70.96211 | 23330 ft | 422 kts | 197° |
| 2026-04-23 20:47 | -34.18096 | -70.96995 | 23861 ft | 425 kts | 197° |
| 2026-04-23 20:47 | -34.20995 | -70.97788 | 24388 ft | 428 kts | 197° |
| 2026-04-23 20:47 | -34.23912 | -70.98582 | 24869 ft | 431 kts | 197° |
| 2026-04-23 20:48 | -34.26855 | -70.99380 | 25335 ft | 433 kts | 197° |
| 2026-04-23 20:48 | -34.29812 | -71.00185 | 25776 ft | 436 kts | 197° |
| 2026-04-23 20:48 | -34.32747 | -71.00990 | 26202 ft | 439 kts | 197° |
| 2026-04-23 20:48 | -34.35740 | -71.01809 | 26615 ft | 442 kts | 197° |
| 2026-04-23 20:49 | -34.38762 | -71.02630 | 27022 ft | 445 kts | 197° |
| 2026-04-23 20:49 | -34.41797 | -71.03459 | 27409 ft | 448 kts | 197° |
| 2026-04-23 20:49 | -34.44852 | -71.04291 | 27797 ft | 451 kts | 197° |
| 2026-04-23 20:49 | -34.47923 | -71.05132 | 28177 ft | 453 kts | 197° |
| 2026-04-23 20:50 | -34.49968 | -71.05689 | 28409 ft | 455 kts | 197° |
| 2026-04-23 20:50 | -34.53064 | -71.06538 | 28770 ft | 457 kts | 197° |
| 2026-04-23 20:50 | -34.56171 | -71.07381 | 29201 ft | 457 kts | 197° |
| 2026-04-23 20:50 | -34.59264 | -71.08225 | 29684 ft | 455 kts | 197° |
| 2026-04-23 20:51 | -34.62353 | -71.09075 | 30128 ft | 454 kts | 197° |
| 2026-04-23 20:51 | -34.65438 | -71.09926 | 30550 ft | 453 kts | 197° |
| 2026-04-23 20:51 | -34.68516 | -71.10777 | 30946 ft | 453 kts | 197° |
| 2026-04-23 20:51 | -34.71588 | -71.11625 | 31341 ft | 453 kts | 197° |
| 2026-04-23 20:52 | -34.75677 | -71.12653 | 31856 ft | 452 kts | 196° |
| 2026-04-23 20:52 | -34.77762 | -71.13160 | 32124 ft | 452 kts | 195° |
| 2026-04-23 20:52 | -34.80842 | -71.13910 | 32483 ft | 452 kts | 196° |
| 2026-04-23 20:52 | -34.83886 | -71.14650 | 32841 ft | 451 kts | 196° |
| 2026-04-23 20:53 | -34.86964 | -71.15397 | 33192 ft | 451 kts | 196° |
| 2026-04-23 20:53 | -34.90038 | -71.16146 | 33512 ft | 451 kts | 196° |
| 2026-04-23 20:53 | -34.93111 | -71.16898 | 33838 ft | 450 kts | 196° |
| 2026-04-23 20:53 | -34.96182 | -71.17641 | 34146 ft | 450 kts | 196° |
| 2026-04-23 20:54 | -34.99248 | -71.18388 | 34421 ft | 450 kts | 196° |
| 2026-04-23 20:54 | -35.02319 | -71.19134 | 34676 ft | 450 kts | 196° |
| 2026-04-23 20:54 | -35.05394 | -71.19889 | 34915 ft | 451 kts | 197° |
| 2026-04-23 20:54 | -35.08473 | -71.20645 | 35156 ft | 451 kts | 197° |
| 2026-04-23 20:55 | -35.11550 | -71.21399 | 35393 ft | 451 kts | 197° |
| 2026-04-23 20:55 | -35.14630 | -71.22154 | 35613 ft | 452 kts | 197° |
| 2026-04-23 20:55 | -35.17711 | -71.22907 | 35838 ft | 452 kts | 197° |
| 2026-04-23 20:55 | -35.20796 | -71.23662 | 36065 ft | 452 kts | 197° |
| 2026-04-23 20:56 | -35.23879 | -71.24419 | 36281 ft | 452 kts | 197° |
| 2026-04-23 20:56 | -35.26962 | -71.25179 | 36474 ft | 453 kts | 197° |
| 2026-04-23 20:56 | -35.30059 | -71.25930 | 36670 ft | 453 kts | 197° |
| 2026-04-23 20:56 | -35.33149 | -71.26676 | 36932 ft | 451 kts | 197° |
| 2026-04-23 20:57 | -35.36216 | -71.27426 | 37180 ft | 449 kts | 197° |
| 2026-04-23 20:57 | -35.39280 | -71.28177 | 37264 ft | 447 kts | 197° |
| 2026-04-23 20:57 | -35.45367 | -71.29675 | 37244 ft | 446 kts | 197° |
| 2026-04-23 20:58 | -35.51452 | -71.31180 | 37228 ft | 446 kts | 197° |
| 2026-04-23 20:58 | -35.57525 | -71.32678 | 37233 ft | 445 kts | 197° |
| 2026-04-23 20:59 | -35.63552 | -71.34175 | 37234 ft | 445 kts | 197° |
| 2026-04-23 20:59 | -35.69615 | -71.35684 | 37228 ft | 444 kts | 197° |
| 2026-04-23 21:00 | -35.75672 | -71.37199 | 37239 ft | 444 kts | 197° |
| 2026-04-23 21:00 | -35.81729 | -71.38708 | 37238 ft | 444 kts | 197° |
| 2026-04-23 21:01 | -35.87777 | -71.40213 | 37245 ft | 444 kts | 197° |
| 2026-04-23 21:01 | -35.93829 | -71.41715 | 37239 ft | 444 kts | 197° |
| 2026-04-23 21:02 | -35.99881 | -71.43232 | 37242 ft | 444 kts | 197° |
| 2026-04-23 21:02 | -36.05915 | -71.44750 | 37245 ft | 440 kts | 197° |
| 2026-04-23 21:03 | -36.11925 | -71.46277 | 37249 ft | 441 kts | 197° |
| 2026-04-23 21:03 | -36.17938 | -71.47796 | 37249 ft | 441 kts | 197° |
| 2026-04-23 21:04 | -36.23946 | -71.49321 | 37251 ft | 441 kts | 197° |
| 2026-04-23 21:04 | -36.29953 | -71.50836 | 37251 ft | 441 kts | 197° |
| 2026-04-23 21:05 | -36.35965 | -71.52359 | 37249 ft | 441 kts | 197° |
| 2026-04-23 21:05 | -36.41974 | -71.53878 | 37251 ft | 441 kts | 197° |
| 2026-04-23 21:06 | -36.47981 | -71.55402 | 37258 ft | 441 kts | 197° |
| 2026-04-23 21:06 | -36.53991 | -71.56925 | 37259 ft | 441 kts | 197° |
| 2026-04-23 21:07 | -36.59994 | -71.58454 | 37261 ft | 440 kts | 197° |
| 2026-04-23 21:07 | -36.65989 | -71.59976 | 37260 ft | 440 kts | 197° |
| 2026-04-23 21:08 | -36.71942 | -71.61494 | 37262 ft | 439 kts | 197° |
| 2026-04-23 21:08 | -36.77930 | -71.63030 | 37265 ft | 440 kts | 197° |
| 2026-04-23 21:09 | -36.83920 | -71.64562 | 37272 ft | 439 kts | 197° |
| 2026-04-23 21:09 | -36.89898 | -71.66094 | 37267 ft | 438 kts | 197° |
| 2026-04-23 21:10 | -36.95874 | -71.67631 | 37271 ft | 438 kts | 197° |
| 2026-04-23 21:10 | -37.01846 | -71.69166 | 37272 ft | 437 kts | 197° |
| 2026-04-23 21:11 | -37.07806 | -71.70706 | 37280 ft | 437 kts | 197° |
| 2026-04-23 21:11 | -37.13759 | -71.72242 | 37280 ft | 436 kts | 197° |
| 2026-04-23 21:12 | -37.19703 | -71.73776 | 37285 ft | 436 kts | 197° |
| 2026-04-23 21:12 | -37.25643 | -71.75314 | 37292 ft | 435 kts | 197° |
| 2026-04-23 21:13 | -37.31575 | -71.76852 | 37290 ft | 435 kts | 197° |
| 2026-04-23 21:13 | -37.37477 | -71.78382 | 37299 ft | 430 kts | 197° |
| 2026-04-23 21:14 | -37.43343 | -71.79908 | 37305 ft | 430 kts | 197° |
| 2026-04-23 21:14 | -37.49170 | -71.81429 | 37311 ft | 430 kts | 197° |
| 2026-04-23 21:15 | -37.55072 | -71.82974 | 37310 ft | 430 kts | 197° |
| 2026-04-23 21:15 | -37.60924 | -71.84493 | 37310 ft | 429 kts | 197° |
| 2026-04-23 21:16 | -37.66736 | -71.86018 | 37310 ft | 429 kts | 197° |
| 2026-04-23 21:16 | -37.72568 | -71.87597 | 37311 ft | 428 kts | 199° |
| 2026-04-23 21:17 | -37.78350 | -71.89385 | 37311 ft | 428 kts | 199° |
| 2026-04-23 21:17 | -37.84122 | -71.91186 | 37311 ft | 427 kts | 199° |
| 2026-04-23 21:18 | -37.89898 | -71.92990 | 37304 ft | 428 kts | 199° |
| 2026-04-23 21:18 | -37.95675 | -71.94796 | 37300 ft | 427 kts | 199° |
| 2026-04-23 21:19 | -38.01449 | -71.96598 | 37300 ft | 427 kts | 199° |
| 2026-04-23 21:19 | -38.07224 | -71.98409 | 37302 ft | 427 kts | 199° |
| 2026-04-23 21:20 | -38.12996 | -72.00225 | 37300 ft | 427 kts | 199° |
| 2026-04-23 21:20 | -38.18766 | -72.02044 | 37299 ft | 427 kts | 199° |
| 2026-04-23 21:21 | -38.24535 | -72.03861 | 37300 ft | 427 kts | 199° |
| 2026-04-23 21:21 | -38.30309 | -72.05681 | 37302 ft | 427 kts | 199° |
| 2026-04-23 21:22 | -38.36076 | -72.07503 | 37300 ft | 427 kts | 199° |
| 2026-04-23 21:22 | -38.41802 | -72.09321 | 37301 ft | 427 kts | 199° |
| 2026-04-23 21:23 | -38.47573 | -72.11149 | 37302 ft | 428 kts | 199° |
| 2026-04-23 21:23 | -38.53349 | -72.12989 | 37300 ft | 427 kts | 199° |
| 2026-04-23 21:24 | -38.59116 | -72.14828 | 37300 ft | 427 kts | 199° |
| 2026-04-23 21:24 | -38.64891 | -72.16669 | 37301 ft | 428 kts | 199° |
| 2026-04-23 21:25 | -38.70668 | -72.18515 | 37301 ft | 428 kts | 199° |
| 2026-04-23 21:25 | -38.76446 | -72.20367 | 37304 ft | 428 kts | 199° |
| 2026-04-23 21:26 | -38.82225 | -72.22219 | 37309 ft | 428 kts | 200° |
| 2026-04-23 21:26 | -38.88002 | -72.24080 | 37308 ft | 427 kts | 200° |
| 2026-04-23 21:27 | -38.93778 | -72.25934 | 37309 ft | 428 kts | 200° |
| 2026-04-23 21:27 | -38.99567 | -72.27801 | 37311 ft | 429 kts | 200° |
| 2026-04-23 21:28 | -39.05355 | -72.29671 | 37311 ft | 429 kts | 200° |
| 2026-04-23 21:28 | -39.11142 | -72.31538 | 37310 ft | 429 kts | 200° |
| 2026-04-23 21:29 | -39.16930 | -72.33407 | 37309 ft | 429 kts | 200° |
| 2026-04-23 21:29 | -39.22686 | -72.35277 | 37312 ft | 429 kts | 200° |
| 2026-04-23 21:30 | -39.28508 | -72.37172 | 37303 ft | 429 kts | 200° |
| 2026-04-23 21:30 | -39.34262 | -72.39038 | 37302 ft | 429 kts | 200° |
| 2026-04-23 21:31 | -39.40057 | -72.40927 | 37302 ft | 429 kts | 200° |
| 2026-04-23 21:31 | -39.45854 | -72.42818 | 37296 ft | 430 kts | 200° |
| 2026-04-23 21:32 | -39.51655 | -72.44716 | 37301 ft | 430 kts | 200° |
| 2026-04-23 21:32 | -39.57457 | -72.46616 | 37300 ft | 430 kts | 200° |
| 2026-04-23 21:33 | -39.63258 | -72.48510 | 37301 ft | 430 kts | 200° |
| 2026-04-23 21:33 | -39.69060 | -72.50411 | 37294 ft | 430 kts | 200° |
| 2026-04-23 21:34 | -39.74858 | -72.52320 | 37291 ft | 430 kts | 200° |
| 2026-04-23 21:34 | -39.80665 | -72.54203 | 37291 ft | 430 kts | 200° |
| 2026-04-23 21:35 | -39.86471 | -72.56068 | 37285 ft | 430 kts | 200° |
| 2026-04-23 21:35 | -39.92235 | -72.57924 | 36427 ft | 425 kts | 200° |
| 2026-04-23 21:36 | -39.97999 | -72.59790 | 34480 ft | 434 kts | 199° |
| 2026-04-23 21:36 | -40.00946 | -72.60746 | 33435 ft | 439 kts | 199° |
| 2026-04-23 21:36 | -40.03933 | -72.61715 | 32347 ft | 444 kts | 199° |
| 2026-04-23 21:37 | -40.06946 | -72.62691 | 31353 ft | 447 kts | 199° |
| 2026-04-23 21:37 | -40.09959 | -72.63665 | 30469 ft | 445 kts | 199° |
| 2026-04-23 21:37 | -40.12953 | -72.64632 | 29751 ft | 440 kts | 199° |
| 2026-04-23 21:37 | -40.15907 | -72.65592 | 29086 ft | 434 kts | 199° |
| 2026-04-23 21:38 | -40.18821 | -72.66543 | 28462 ft | 429 kts | 199° |
| 2026-04-23 21:38 | -40.21703 | -72.67485 | 27849 ft | 424 kts | 199° |
| 2026-04-23 21:38 | -40.24547 | -72.68414 | 27247 ft | 419 kts | 199° |
| 2026-04-23 21:38 | -40.27367 | -72.69338 | 26631 ft | 414 kts | 199° |
| 2026-04-23 21:39 | -40.30150 | -72.70249 | 26019 ft | 410 kts | 199° |
| 2026-04-23 21:39 | -40.32911 | -72.71151 | 25405 ft | 406 kts | 199° |
| 2026-04-23 21:39 | -40.35598 | -72.72029 | 24810 ft | 401 kts | 199° |
| 2026-04-23 21:39 | -40.38298 | -72.72913 | 24207 ft | 397 kts | 199° |
| 2026-04-23 21:40 | -40.40962 | -72.73785 | 23603 ft | 393 kts | 200° |
| 2026-04-23 21:40 | -40.43601 | -72.74651 | 23003 ft | 389 kts | 200° |
| 2026-04-23 21:40 | -40.45333 | -72.75220 | 22606 ft | 386 kts | 200° |
| 2026-04-23 21:40 | -40.47926 | -72.76074 | 22003 ft | 382 kts | 200° |
| 2026-04-23 21:41 | -40.50493 | -72.76924 | 21411 ft | 379 kts | 200° |
| 2026-04-23 21:41 | -40.53053 | -72.77769 | 21015 ft | 378 kts | 200° |
| 2026-04-23 21:41 | -40.55598 | -72.78609 | 20642 ft | 375 kts | 200° |
| 2026-04-23 21:41 | -40.58928 | -72.79707 | 20044 ft | 370 kts | 200° |
| 2026-04-23 21:42 | -40.61417 | -72.80527 | 19564 ft | 367 kts | 200° |
| 2026-04-23 21:42 | -40.63086 | -72.81077 | 19232 ft | 366 kts | 200° |
| 2026-04-23 21:42 | -40.65517 | -72.81882 | 18762 ft | 364 kts | 200° |
| 2026-04-23 21:42 | -40.67968 | -72.82691 | 18309 ft | 363 kts | 200° |
| 2026-04-23 21:43 | -40.70417 | -72.83502 | 17861 ft | 362 kts | 200° |
| 2026-04-23 21:43 | -40.72856 | -72.84311 | 17388 ft | 361 kts | 200° |
| 2026-04-23 21:43 | -40.75300 | -72.85121 | 16916 ft | 360 kts | 201° |
| 2026-04-23 21:43 | -40.77733 | -72.85930 | 16461 ft | 360 kts | 201° |
| 2026-04-23 21:44 | -40.80156 | -72.86734 | 16008 ft | 358 kts | 201° |
| 2026-04-23 21:44 | -40.82570 | -72.87536 | 15549 ft | 357 kts | 201° |
| 2026-04-23 21:44 | -40.84983 | -72.88336 | 15103 ft | 356 kts | 201° |
| 2026-04-23 21:44 | -40.87392 | -72.89138 | 14650 ft | 355 kts | 201° |
| 2026-04-23 21:45 | -40.89782 | -72.89933 | 14192 ft | 354 kts | 201° |
| 2026-04-23 21:45 | -40.92170 | -72.90729 | 13743 ft | 353 kts | 201° |
| 2026-04-23 21:45 | -40.94555 | -72.91492 | 13298 ft | 354 kts | 198° |
| 2026-04-23 21:45 | -40.96985 | -72.91900 | 12886 ft | 357 kts | 192° |
| 2026-04-23 21:46 | -40.99452 | -72.92193 | 12458 ft | 355 kts | 192° |
| 2026-04-23 21:46 | -41.01906 | -72.92481 | 12017 ft | 352 kts | 192° |
| 2026-04-23 21:46 | -41.04313 | -72.92767 | 11580 ft | 343 kts | 192° |
| 2026-04-23 21:46 | -41.06667 | -72.93056 | 11214 ft | 335 kts | 192° |
| 2026-04-23 21:47 | -41.08957 | -72.93339 | 10989 ft | 323 kts | 192° |
| 2026-04-23 21:47 | -41.11151 | -72.93608 | 10824 ft | 311 kts | 192° |
| 2026-04-23 21:47 | -41.13266 | -72.93870 | 10678 ft | 298 kts | 193° |
| 2026-04-23 21:47 | -41.15292 | -72.94122 | 10508 ft | 287 kts | 193° |
| 2026-04-23 21:48 | -41.17260 | -72.94370 | 10224 ft | 281 kts | 193° |
| 2026-04-23 21:48 | -41.19197 | -72.94616 | 9888 ft | 278 kts | 192° |
| 2026-04-23 21:48 | -41.21074 | -72.94854 | 9563 ft | 278 kts | 192° |
| 2026-04-23 21:48 | -41.23028 | -72.95099 | 9233 ft | 278 kts | 192° |
| 2026-04-23 21:49 | -41.24952 | -72.95342 | 8927 ft | 277 kts | 191° |
| 2026-04-23 21:49 | -41.26871 | -72.95532 | 8565 ft | 277 kts | 188° |
| 2026-04-23 21:49 | -41.28795 | -72.95610 | 8226 ft | 276 kts | 187° |
| 2026-04-23 21:49 | -41.30718 | -72.95672 | 7908 ft | 277 kts | 187° |
| 2026-04-23 21:50 | -41.32649 | -72.95732 | 7607 ft | 277 kts | 187° |
| 2026-04-23 21:50 | -41.34572 | -72.95795 | 7308 ft | 277 kts | 187° |
| 2026-04-23 21:50 | -41.36497 | -72.95859 | 7001 ft | 276 kts | 187° |
| 2026-04-23 21:50 | -41.38422 | -72.95925 | 6693 ft | 277 kts | 187° |
| 2026-04-23 21:51 | -41.40344 | -72.95988 | 6389 ft | 276 kts | 186° |
| 2026-04-23 21:51 | -41.42265 | -72.96050 | 6081 ft | 276 kts | 186° |
| 2026-04-23 21:51 | -41.44181 | -72.96113 | 5784 ft | 275 kts | 186° |
| 2026-04-23 21:51 | -41.46093 | -72.96180 | 5484 ft | 275 kts | 186° |
| 2026-04-23 21:52 | -41.48002 | -72.96244 | 5199 ft | 274 kts | 186° |
| 2026-04-23 21:52 | -41.49908 | -72.96307 | 4902 ft | 274 kts | 186° |
| 2026-04-23 21:52 | -41.51814 | -72.96372 | 4599 ft | 274 kts | 186° |
| 2026-04-23 21:52 | -41.53717 | -72.96435 | 4286 ft | 273 kts | 186° |
| 2026-04-23 21:53 | -41.55589 | -72.96495 | 4025 ft | 270 kts | 185° |
| 2026-04-23 21:53 | -41.57419 | -72.96554 | 3963 ft | 256 kts | 185° |
| 2026-04-23 21:53 | -41.59138 | -72.96689 | 3955 ft | 236 kts | 194° |
| 2026-04-23 21:53 | -41.60560 | -72.97441 | 3954 ft | 207 kts | 220° |
| 2026-04-23 21:54 | -41.61569 | -72.98719 | 3904 ft | 195 kts | 244° |
| 2026-04-23 21:54 | -41.61941 | -73.00402 | 3673 ft | 189 kts | 270° |
| 2026-04-23 21:54 | -41.61905 | -73.02145 | 3493 ft | 186 kts | 275° |
| 2026-04-23 21:54 | -41.61843 | -73.03850 | 3197 ft | 184 kts | 275° |
| 2026-04-23 21:55 | -41.61797 | -73.05589 | 3004 ft | 187 kts | 274° |
| 2026-04-23 21:55 | -41.61705 | -73.07317 | 2977 ft | 186 kts | 284° |
| 2026-04-23 21:55 | -41.61172 | -73.08862 | 2979 ft | 185 kts | 311° |
| 2026-04-23 21:55 | -41.60136 | -73.09801 | 2990 ft | 174 kts | 340° |
| 2026-04-23 21:56 | -41.58990 | -73.09971 | 2967 ft | 160 kts | 355° |
| 2026-04-23 21:56 | -41.57913 | -73.09902 | 2792 ft | 149 kts | 356° |
| 2026-04-23 21:56 | -41.56889 | -73.09862 | 2610 ft | 147 kts | 357° |
| 2026-04-23 21:56 | -41.55831 | -73.09827 | 2422 ft | 162 kts | 356° |
| 2026-04-23 21:57 | -41.54700 | -73.09806 | 2309 ft | 165 kts | 0° |
| 2026-04-23 21:57 | -41.53548 | -73.09730 | 2015 ft | 165 kts | 358° |
| 2026-04-23 21:57 | -41.52467 | -73.09699 | 1805 ft | 146 kts | 2° |
| 2026-04-23 21:57 | -41.51469 | -73.09665 | 1602 ft | 142 kts | 4° |
| 2026-04-23 21:58 | -41.50498 | -73.09631 | 1412 ft | 138 kts | 4° |
| 2026-04-23 21:58 | -41.49566 | -73.09599 | 1221 ft | 131 kts | 1° |
| 2026-04-23 21:58 | -41.48656 | -73.09568 | 1033 ft | 131 kts | 1° |
| 2026-04-23 21:58 | -41.47748 | -73.09536 | 841 ft | 131 kts | 2° |
| 2026-04-23 21:59 | -41.46838 | -73.09505 | 686 ft | 131 kts | 1° |
| 2026-04-23 21:59 | -41.45927 | -73.09469 | 519 ft | 131 kts | 1° |
| 2026-04-23 21:59 | -41.45025 | -73.09438 | 332 ft | 131 kts | 1° |
| 2026-04-23 22:00 | -41.43675 | -73.09391 | 304 ft | 30 kts | 1° |
| 2026-04-23 22:00 | -41.43532 | -73.09386 | 308 ft | 15 kts | 1° |
| 2026-04-23 22:00 | -41.43507 | -73.09387 | 307 ft | 0 kts | 356° |
| 2026-04-23 22:00 | -41.43495 | -73.09397 | 309 ft | 4 kts | 315° |
| 2026-04-23 22:01 | -41.43475 | -73.09452 | 309 ft | 9 kts | 271° |
| 2026-04-23 22:01 | -41.43470 | -73.09550 | 308 ft | 12 kts | 277° |
| 2026-04-23 22:01 | -41.43466 | -73.09581 | 307 ft | 3 kts | 281° |
| 2026-04-23 22:01 | -41.43462 | -73.09622 | 309 ft | 6 kts | 273° |
| 2026-04-23 22:02 | -41.43461 | -73.09698 | 307 ft | 9 kts | 270° |
| 2026-04-23 22:02 | -41.43460 | -73.09727 | 307 ft | 4 kts | 270° |
| 2026-04-23 22:02 | -41.43460 | -73.09737 | 306 ft | 0 kts | 272° |